Time;durP1;ratioP1;P1;durP2;ratioP2;P2;SDS_P1;SDS_P2;PMS_P1;PMS_P2;Temp;Humidity;BMP_temperature;BMP_pressure;BME280_temperature;BME280_humidity;BME280_pressure;Samples;Min_cycle;Max_cycle;Signal;HPM_P1;HPM_P2
2022/08/29 00:01:34;;;;;;;;;;;;;;;25.08;60.15;99714.22;7314260;19;130122;-38
2022/08/29 00:03:59;;;;;;;;;;;;;;;25.12;60.60;99726.09;7312549;19;129490;-38
2022/08/29 00:06:24;;;;;;;;;;;;;;;25.12;60.47;99724.28;7311683;19;130023;-38
2022/08/29 00:08:50;;;;;;;;;;;;;;;25.11;60.57;99727.06;7312543;19;129476;-38
2022/08/29 00:11:16;;;;;;;;;;;;;;;25.11;59.86;99732.31;7312516;19;129828;-38
2022/08/29 00:13:41;;;;;;;;;;;;;;;25.09;60.26;99729.84;7311649;19;129929;-37
2022/08/29 00:16:07;;;;;;;;;;;;;;;25.09;60.00;99723.78;7310868;19;129753;-37
2022/08/29 00:18:36;;;;;;;;;;;;;;;25.11;60.25;99737.59;7309452;19;129093;-37
2022/08/29 00:21:02;;;;;;;;;;;;;;;25.05;60.18;99727.72;7311342;19;129156;-37
2022/08/29 00:23:27;;;;;;;;;;;;;;;25.09;60.54;99729.06;7312603;19;130079;-37
2022/08/29 00:25:52;;;;;;;;;;;;;;;25.09;60.31;99734.31;7310208;19;129744;-37
2022/08/29 00:28:17;;;;;;;;;;;;;;;25.09;60.35;99731.69;7311914;19;129130;-37
2022/08/29 00:30:43;;;;;;;;;;;;;;;25.09;60.30;99734.31;7311276;19;129607;-38
2022/08/29 00:33:08;;;;;;;;;;;;;;;25.09;59.90;99735.13;7311679;19;129416;-37
2022/08/29 00:35:35;;;;;;;;;;;;;;;25.09;60.49;99737.75;7310461;19;129441;-38
2022/08/29 00:38:01;;;;;;;;;;;;;;;25.08;59.92;99744.00;7311671;19;129568;-38
2022/08/29 00:40:30;;;;;;;;;;;;;;;25.07;59.91;99731.81;7311137;19;129296;-37
2022/08/29 00:42:56;;;;;;;;;;;;;;;25.09;60.08;99742.22;7312611;19;131257;-38
2022/08/29 00:45:22;;;;;;;;;;;;;;;25.07;59.76;99744.16;7317800;19;129686;-38
2022/08/29 00:47:52;;;;;;;;;;;;;;;25.09;60.30;99750.09;7318776;19;129363;-37
2022/08/29 00:50:23;;;;;;;;;;;;;;;25.09;59.99;99755.38;7317961;19;129043;-38
2022/08/29 00:52:49;;;;;;;;;;;;;;;25.08;59.70;99758.97;7317725;19;130304;-37
2022/08/29 00:55:18;;;;;;;;;;;;;;;25.06;60.27;99756.50;7316221;19;129218;-37
2022/08/29 00:57:46;;;;;;;;;;;;;;;25.07;59.79;99752.84;7317472;19;129623;-38
2022/08/29 01:00:13;;;;;;;;;;;;;;;25.06;60.36;99753.84;7317990;19;129265;-38
2022/08/29 01:02:40;;;;;;;;;;;;;;;25.06;60.16;99758.28;7317615;19;129973;-37
2022/08/29 01:05:11;;;;;;;;;;;;;;;25.07;60.38;99763.38;7317746;19;130814;-38
2022/08/29 01:07:37;;;;;;;;;;;;;;;25.06;60.00;99758.28;7315209;19;129177;-37
2022/08/29 01:10:03;;;;;;;;;;;;;;;25.08;59.78;99762.44;7317627;19;129152;-38
2022/08/29 01:12:29;;;;;;;;;;;;;;;25.00;60.33;99749.25;7317624;19;130907;-38
2022/08/29 01:14:58;;;;;;;;;;;;;;;25.07;60.30;99759.94;7317282;19;129097;-38
2022/08/29 01:17:26;;;;;;;;;;;;;;;25.05;59.32;99754.03;7317755;19;129316;-38
2022/08/29 01:19:57;;;;;;;;;;;;;;;25.04;59.57;99762.91;7318111;19;129673;-38
2022/08/29 01:22:33;;;;;;;;;;;;;;;25.04;59.44;99768.16;7316461;19;129262;-38
2022/08/29 01:25:00;;;;;;;;;;;;;;;25.04;60.33;99761.06;7317016;19;130365;-37
2022/08/29 01:27:28;;;;;;;;;;;;;;;25.06;60.02;99768.81;7315665;19;129112;-38
2022/08/29 01:29:53;;;;;;;;;;;;;;;25.04;60.24;99763.72;7317395;19;129159;-38
2022/08/29 01:32:18;;;;;;;;;;;;;;;25.00;59.69;99753.66;7316865;19;130277;-37
2022/08/29 01:34:44;;;;;;;;;;;;;;;25.02;59.84;99764.88;7317419;19;130100;-38
2022/08/29 01:37:11;;;;;;;;;;;;;;;25.02;60.05;99763.06;7317325;19;129955;-37
2022/08/29 01:39:37;;;;;;;;;;;;;;;25.05;59.56;99769.81;7317787;19;129832;-37
2022/08/29 01:42:05;;;;;;;;;;;;;;;25.04;60.30;99760.28;7316829;19;130976;-37
2022/08/29 01:44:30;;;;;;;;;;;;;;;24.98;59.52;99755.63;7316556;19;129833;-38
2022/08/29 01:46:58;;;;;;;;;;;;;;;25.03;60.01;99769.13;7315630;19;130475;-37
2022/08/29 01:49:23;;;;;;;;;;;;;;;25.01;59.50;99769.28;7317330;19;129561;-37
2022/08/29 01:51:49;;;;;;;;;;;;;;;25.02;60.12;99770.13;7316197;19;130921;-37
2022/08/29 01:54:14;;;;;;;;;;;;;;;24.98;59.72;99763.50;7316290;19;129143;-37
2022/08/29 01:56:41;;;;;;;;;;;;;;;25.01;59.52;99768.44;7315027;19;129828;-38
2022/08/29 01:59:08;;;;;;;;;;;;;;;25.02;59.81;99770.97;7316679;19;131566;-38
2022/08/29 02:01:36;;;;;;;;;;;;;;;25.01;60.07;99768.44;7316544;19;129142;-37
2022/08/29 02:04:02;;;;;;;;;;;;;;;24.93;59.58;99761.38;7315672;19;131194;-37
2022/08/29 02:06:28;;;;;;;;;;;;;;;24.94;59.65;99756.94;7314538;19;128870;-37
2022/08/29 02:08:54;;;;;;;;;;;;;;;25.00;59.95;99769.44;7315306;19;128966;-38
2022/08/29 02:11:20;;;;;;;;;;;;;;;25.01;59.75;99773.72;7315525;19;129442;-38
2022/08/29 02:13:49;;;;;;;;;;;;;;;25.00;59.72;99777.34;7314929;19;129406;-38
2022/08/29 02:16:16;;;;;;;;;;;;;;;25.01;60.14;99776.34;7315190;19;128829;-38
2022/08/29 02:18:41;;;;;;;;;;;;;;;25.02;60.06;99770.13;7315390;19;128892;-38
2022/08/29 02:21:07;;;;;;;;;;;;;;;24.99;59.06;99765.19;7314682;19;130222;-38
2022/08/29 02:23:33;;;;;;;;;;;;;;;24.99;59.43;99770.44;7313553;19;129344;-38
2022/08/29 02:25:58;;;;;;;;;;;;;;;25.01;59.61;99768.44;7314318;19;128988;-38
2022/08/29 02:28:24;;;;;;;;;;;;;;;24.99;59.92;99773.06;7314146;19;129036;-37
2022/08/29 02:30:51;;;;;;;;;;;;;;;24.98;59.42;99771.41;7315818;19;129287;-38
2022/08/29 02:33:17;;;;;;;;;;;;;;;24.98;60.06;99766.16;7313859;19;131185;-38
2022/08/29 02:35:43;;;;;;;;;;;;;;;24.97;59.75;99773.22;7314657;19;129681;-38
2022/08/29 02:38:09;;;;;;;;;;;;;;;24.97;59.58;99772.41;7314973;19;129284;-38
2022/08/29 02:40:34;;;;;;;;;;;;;;;24.97;59.99;99773.22;7314913;19;128988;-37
2022/08/29 02:43:00;;;;;;;;;;;;;;;24.92;59.72;99764.16;7314910;19;129572;-38
2022/08/29 02:45:26;;;;;;;;;;;;;;;24.98;59.29;99780.13;7313548;19;129212;-38
2022/08/29 02:47:51;;;;;;;;;;;;;;;24.98;59.21;99776.66;7312287;19;129318;-37
2022/08/29 02:50:17;;;;;;;;;;;;;;;24.96;59.34;99781.25;7314314;19;130010;-38
2022/08/29 02:52:43;;;;;;;;;;;;;;;24.96;59.49;99776.00;7314043;19;129330;-37
2022/08/29 02:55:12;;;;;;;;;;;;;;;24.98;59.23;99779.28;7314361;19;129003;-38
2022/08/29 02:57:37;;;;;;;;;;;;;;;24.98;59.16;99776.66;7314472;19;129679;-37
2022/08/29 03:00:04;;;;;;;;;;;;;;;24.94;59.84;99785.88;7314167;19;129513;-38
2022/08/29 03:02:29;;;;;;;;;;;;;;;24.87;59.27;99776.94;7313299;19;130021;-37
2022/08/29 03:04:54;;;;;;;;;;;;;;;24.95;59.67;99788.34;7314088;19;129336;-37
2022/08/29 03:07:19;;;;;;;;;;;;;;;24.96;59.69;99776.00;7310569;19;129054;-37
2022/08/29 03:09:44;;;;;;;;;;;;;;;24.95;59.79;99784.88;7314550;19;131111;-38
2022/08/29 03:12:10;;;;;;;;;;;;;;;24.95;59.34;99788.34;7313476;19;129797;-38
2022/08/29 03:14:35;;;;;;;;;;;;;;;24.95;58.85;99790.13;7314232;19;128734;-37
2022/08/29 03:17:00;;;;;;;;;;;;;;;24.95;59.64;99787.50;7311964;19;129615;-38
2022/08/29 03:19:26;;;;;;;;;;;;;;;24.94;59.41;99783.25;7312969;19;130510;-37
2022/08/29 03:21:51;;;;;;;;;;;;;;;24.95;59.44;99790.13;7314659;19;130406;-38
2022/08/29 03:24:16;;;;;;;;;;;;;;;24.96;58.99;99786.50;7313372;19;128952;-37
2022/08/29 03:26:41;;;;;;;;;;;;;;;24.95;59.44;99784.88;7311107;19;129699;-37
2022/08/29 03:29:07;;;;;;;;;;;;;;;24.95;58.76;99787.50;7313542;19;129957;-38
2022/08/29 03:31:32;;;;;;;;;;;;;;;24.86;59.38;99777.94;7312374;19;129617;-38
2022/08/29 03:33:57;;;;;;;;;;;;;;;24.93;58.95;99785.03;7312670;19;129333;-37
2022/08/29 03:36:25;;;;;;;;;;;;;;;24.92;59.19;99780.75;7310773;19;129083;-38
2022/08/29 03:38:50;;;;;;;;;;;;;;;24.91;59.50;99784.34;7312999;19;130322;-38
2022/08/29 03:41:23;;;;;;;;;;;;;;;24.92;59.01;99775.50;7313291;19;129613;-37
2022/08/29 03:43:49;;;;;;;;;;;;;;;24.91;59.20;99783.53;7313340;19;129230;-38
2022/08/29 03:46:14;;;;;;;;;;;;;;;24.90;59.63;99781.88;7311071;19;129490;-38
2022/08/29 03:48:40;;;;;;;;;;;;;;;24.91;59.19;99794.88;7313337;19;128991;-38
2022/08/29 03:51:05;;;;;;;;;;;;;;;24.90;59.64;99787.97;7314035;19;129604;-38
2022/08/29 03:53:31;;;;;;;;;;;;;;;24.88;58.97;99784.69;7313523;19;129943;-38
2022/08/29 03:55:56;;;;;;;;;;;;;;;24.90;59.31;99789.78;7311978;19;130379;-37
2022/08/29 03:58:22;;;;;;;;;;;;;;;24.89;59.52;99790.78;7313669;19;129528;-38
2022/08/29 04:00:47;;;;;;;;;;;;;;;24.88;59.49;99794.38;7313891;19;129583;-38
2022/08/29 04:03:12;;;;;;;;;;;;;;;24.91;59.20;99805.41;7312937;19;130478;-38
2022/08/29 04:05:38;;;;;;;;;;;;;;;24.92;59.07;99798.34;7312270;19;129660;-37
2022/08/29 04:08:03;;;;;;;;;;;;;;;24.88;59.06;99794.38;7310377;19;129413;-37
2022/08/29 04:10:30;;;;;;;;;;;;;;;24.91;58.73;99807.19;7312974;19;130380;-37
2022/08/29 04:12:56;;;;;;;;;;;;;;;24.92;58.55;99795.72;7313212;19;129015;-38
2022/08/29 04:15:23;;;;;;;;;;;;;;;24.90;59.04;99802.94;7312383;19;130658;-38
2022/08/29 04:17:53;;;;;;;;;;;;;;;24.90;59.16;99802.94;7316749;19;131410;-37
2022/08/29 04:20:18;;;;;;;;;;;;;;;24.88;59.07;99800.47;7319436;19;130251;-38
2022/08/29 04:22:44;;;;;;;;;;;;;;;24.88;59.23;99804.88;7317187;19;128912;-38
2022/08/29 04:25:11;;;;;;;;;;;;;;;24.90;59.16;99808.19;7316949;19;129795;-37
2022/08/29 04:27:37;;;;;;;;;;;;;;;24.87;58.86;99806.72;7316506;19;129173;-37
2022/08/29 04:30:04;;;;;;;;;;;;;;;24.87;58.67;99808.50;7317789;19;129116;-39
2022/08/29 04:32:29;;;;;;;;;;;;;;;24.87;58.93;99805.88;7317309;19;129149;-37
2022/08/29 04:34:56;;;;;;;;;;;;;;;24.88;58.92;99810.16;7317517;19;128869;-37
2022/08/29 04:37:21;;;;;;;;;;;;;;;24.87;58.42;99808.50;7318028;19;130019;-37
2022/08/29 04:39:46;;;;;;;;;;;;;;;24.87;59.22;99809.34;7318615;19;129155;-37
2022/08/29 04:42:12;;;;;;;;;;;;;;;24.86;58.45;99817.38;7317826;19;129069;-38
2022/08/29 04:44:38;;;;;;;;;;;;;;;24.85;58.27;99815.72;7318965;19;128788;-38
2022/08/29 04:47:04;;;;;;;;;;;;;;;24.86;58.12;99817.38;7315273;19;129845;-38
2022/08/29 04:49:29;;;;;;;;;;;;;;;24.88;58.69;99816.25;7317372;19;129734;-38
2022/08/29 04:51:54;;;;;;;;;;;;;;;24.84;58.59;99814.09;7317778;19;129298;-38
2022/08/29 04:54:19;;;;;;;;;;;;;;;24.84;58.20;99819.34;7318287;19;129492;-38
2022/08/29 04:56:45;;;;;;;;;;;;;;;24.84;58.25;99825.41;7315735;19;130225;-38
2022/08/29 04:59:10;;;;;;;;;;;;;;;24.83;58.65;99828.19;7317481;19;130354;-37
2022/08/29 05:01:35;;;;;;;;;;;;;;;24.84;58.21;99829.88;7317214;19;129697;-38
2022/08/29 05:04:01;;;;;;;;;;;;;;;24.82;58.21;99837.91;7317195;19;130597;-37
2022/08/29 05:06:26;;;;;;;;;;;;;;;24.74;57.73;99823.88;7315966;19;131213;-37
2022/08/29 05:08:52;;;;;;;;;;;;;;;24.82;57.58;99837.91;7317314;19;129949;-37
2022/08/29 05:11:18;;;;;;;;;;;;;;;24.81;57.95;99836.25;7317066;19;130778;-38
2022/08/29 05:13:44;;;;;;;;;;;;;;;24.81;57.57;99836.25;7318272;19;129451;-38
2022/08/29 05:16:12;;;;;;;;;;;;;;;24.82;58.47;99842.34;7317248;19;130050;-37
2022/08/29 05:18:38;;;;;;;;;;;;;;;24.79;58.07;99840.81;7318599;19;129226;-37
2022/08/29 05:21:03;;;;;;;;;;;;;;;24.80;57.82;99844.28;7317755;19;128956;-37
2022/08/29 05:23:29;;;;;;;;;;;;;;;24.79;58.15;99848.72;7318091;19;128835;-37
2022/08/29 05:25:55;;;;;;;;;;;;;;;24.78;57.80;99840.97;7315616;19;130073;-38
2022/08/29 05:28:21;;;;;;;;;;;;;;;24.79;57.78;99847.91;7312252;19;130511;-38
2022/08/29 05:30:46;;;;;;;;;;;;;;;24.77;57.70;99847.22;7314380;19;129614;-37
2022/08/29 05:33:11;;;;;;;;;;;;;;;24.78;57.48;99851.50;7317455;19;128935;-38
2022/08/29 05:35:37;;;;;;;;;;;;;;;24.76;57.75;99848.22;7296478;19;130164;-38
2022/08/29 05:38:02;;;;;;;;;;;;;;;24.77;58.52;99844.59;7310102;19;132885;-37
2022/08/29 05:40:27;;;;;;;;;;;;;;;24.77;57.80;99849.84;7316677;19;129656;-37
2022/08/29 05:42:53;;;;;;;;;;;;;;;24.76;58.19;99845.59;7308728;19;129635;-38
2022/08/29 05:45:18;;;;;;;;;;;;;;;24.74;57.33;99844.91;7306932;19;129818;-37
2022/08/29 05:47:44;;;;;;;;;;;;;;;24.75;57.77;99855.28;7302993;19;130428;-37
2022/08/29 05:50:10;;;;;;;;;;;;;;;24.75;58.29;99855.28;7317047;19;129509;-38
2022/08/29 05:52:36;;;;;;;;;;;;;;;24.77;58.19;99852.50;7310077;19;128864;-38
2022/08/29 05:55:01;;;;;;;;;;;;;;;24.74;58.10;99850.19;7310262;19;129355;-38
2022/08/29 05:57:27;;;;;;;;;;;;;;;24.66;58.41;99839.56;7314096;19;129963;-38
2022/08/29 05:59:52;;;;;;;;;;;;;;;24.75;57.70;99846.56;7312559;19;129407;-37
2022/08/29 06:02:19;;;;;;;;;;;;;;;24.75;57.76;99852.66;7315610;19;129308;-37
2022/08/29 06:04:44;;;;;;;;;;;;;;;24.74;57.98;99853.63;7311753;19;131361;-38
2022/08/29 06:07:10;;;;;;;;;;;;;;;24.74;57.59;99855.44;7314637;19;133119;-37
2022/08/29 06:09:36;;;;;;;;;;;;;;;24.75;57.70;99864.97;7313002;19;128871;-38
2022/08/29 06:12:02;;;;;;;;;;;;;;;24.74;57.49;99863.31;7310795;19;130968;-38
2022/08/29 06:14:27;;;;;;;;;;;;;;;24.73;57.36;99869.53;7314556;19;130073;-37
2022/08/29 06:16:53;;;;;;;;;;;;;;;24.73;57.70;99877.44;7307417;19;130517;-38
2022/08/29 06:19:18;;;;;;;;;;;;;;;24.73;57.85;99874.81;7315172;19;129112;-37
2022/08/29 06:21:44;;;;;;;;;;;;;;;24.73;57.71;99880.06;7314874;19;129522;-38
2022/08/29 06:24:09;;;;;;;;;;;;;;;24.73;57.52;99874.81;7306790;19;129385;-37
2022/08/29 06:26:35;;;;;;;;;;;;;;;24.72;57.44;99883.69;7312518;19;129538;-36
2022/08/29 06:29:03;;;;;;;;;;;;;;;24.70;57.37;99877.75;7314635;19;128980;-37
2022/08/29 06:31:28;;;;;;;;;;;;;;;24.70;57.50;99880.38;7315163;19;129010;-38
2022/08/29 06:33:55;;;;;;;;;;;;;;;24.68;57.78;99883.16;7311930;19;130277;-38
2022/08/29 06:36:21;;;;;;;;;;;;;;;24.66;56.98;99887.69;7308296;19;129488;-37
2022/08/29 06:38:46;;;;;;;;;;;;;;;24.67;57.72;99891.16;7313592;19;129369;-38
2022/08/29 06:41:13;;;;;;;;;;;;;;;24.65;57.73;99890.47;7307788;19;128938;-39
2022/08/29 06:43:39;;;;;;;;;;;;;;;24.64;57.68;99897.56;7313154;19;130235;-38
2022/08/29 06:46:05;;;;;;;;;;;;;;;24.59;56.92;99880.59;7311986;19;129190;-37
2022/08/29 06:48:30;;;;;;;;;;;;;;;24.65;56.77;99895.75;7309836;19;128846;-38
2022/08/29 06:50:56;;;;;;;;;;;;;;;24.64;57.17;99899.38;7314364;19;128798;-38
2022/08/29 06:53:22;;;;;;;;;;;;;;;24.64;57.28;99907.25;7306550;19;131061;-38
2022/08/29 06:55:47;;;;;;;;;;;;;;;24.64;56.85;99912.50;7311001;19;129711;-37
2022/08/29 06:58:12;;;;;;;;;;;;;;;24.63;56.63;99905.56;7311823;19;129610;-37
2022/08/29 07:00:41;;;;;;;;;;;;;;;24.62;56.47;99910.03;7314777;19;129298;-37
2022/08/29 07:03:07;;;;;;;;;;;;;;;24.62;56.59;99903.94;7310950;19;131868;-38
2022/08/29 07:05:32;;;;;;;;;;;;;;;24.64;57.06;99907.25;7308763;19;131002;-38
2022/08/29 07:07:57;;;;;;;;;;;;;;;24.63;57.60;99913.47;7311353;19;129432;-38
2022/08/29 07:10:23;;;;;;;;;;;;;;;24.60;56.59;99909.34;7309192;19;129220;-37
2022/08/29 07:12:48;;;;;;;;;;;;;;;24.61;57.38;99915.44;7312594;19;129550;-37
2022/08/29 07:15:13;;;;;;;;;;;;;;;24.57;56.99;99911.44;7306137;19;130636;-38
2022/08/29 07:17:39;;;;;;;;;;;;;;;24.56;57.11;99909.81;7311849;19;129668;-37
2022/08/29 07:20:05;;;;;;;;;;;;;;;24.55;57.42;99908.97;7308301;19;129347;-38
2022/08/29 07:22:32;;;;;;;;;;;;;;;24.56;57.08;99909.81;7313701;19;130911;-38
2022/08/29 07:24:57;;;;;;;;;;;;;;;24.48;57.17;99894.78;7314251;19;129838;-37
2022/08/29 07:27:23;;;;;;;;;;;;;;;24.57;57.40;99920.19;7312876;19;129154;-38
2022/08/29 07:29:48;;;;;;;;;;;;;;;24.58;57.62;99915.75;7314876;19;129175;-37
2022/08/29 07:32:13;;;;;;;;;;;;;;;24.59;57.57;99917.41;7311147;19;129643;-38
2022/08/29 07:34:38;;;;;;;;;;;;;;;24.60;57.42;99911.16;7311107;19;130339;-37
2022/08/29 07:37:04;;;;;;;;;;;;;;;24.61;57.50;99916.25;7307147;19;129093;-38
2022/08/29 07:39:30;;;;;;;;;;;;;;;24.61;57.65;99902.31;7311561;19;131274;-38
2022/08/29 07:41:55;;;;;;;;;;;;;;;24.62;57.91;99909.19;7308132;19;129778;-38
2022/08/29 07:44:21;;;;;;;;;;;;;;;24.63;57.30;99914.31;7307267;19;129731;-38
2022/08/29 07:46:46;;;;;;;;;;;;;;;24.65;58.09;99908.88;7306304;19;129113;-37
2022/08/29 07:49:12;;;;;;;;;;;;;;;24.66;57.49;99905.31;7306903;19;130551;-38
2022/08/29 07:51:38;;;;;;;;;;;;;;;24.65;58.36;99912.34;7311512;19;130076;-38
2022/08/29 07:54:04;;;;;;;;;;;;;;;24.66;57.93;99913.19;7308409;19;129777;-39
2022/08/29 07:56:31;;;;;;;;;;;;;;;24.62;58.27;99899.50;7305227;19;129586;-39
2022/08/29 07:58:58;;;;;;;;;;;;;;;24.69;57.85;99915.53;7312299;19;129397;-37
2022/08/29 08:01:24;;;;;;;;;;;;;;;24.67;57.91;99910.41;7305230;19;129154;-38
2022/08/29 08:03:50;;;;;;;;;;;;;;;24.68;58.37;99909.44;7310266;19;130066;-38
2022/08/29 08:06:16;;;;;;;;;;;;;;;24.68;57.98;99908.63;7309226;19;129508;-37
2022/08/29 08:08:41;;;;;;;;;;;;;;;24.68;58.53;99906.81;7306679;19;130045;-36
2022/08/29 08:11:07;;;;;;;;;;;;;;;24.69;58.51;99905.03;7309171;19;130195;-41
2022/08/29 08:13:34;;;;;;;;;;;;;;;24.69;58.13;99911.13;7308631;19;130290;-38
2022/08/29 08:16:02;;;;;;;;;;;;;;;24.69;58.01;99905.03;7309882;19;128854;-37
2022/08/29 08:18:28;;;;;;;;;;;;;;;24.69;58.01;99903.22;7310765;19;130633;-37
2022/08/29 08:20:54;;;;;;;;;;;;;;;24.69;58.48;99913.75;7311050;19;130632;-37
2022/08/29 08:23:19;;;;;;;;;;;;;;;24.71;58.92;99919.66;7309235;19;129267;-38
2022/08/29 08:25:44;;;;;;;;;;;;;;;24.70;58.16;99907.50;7309768;19;129671;-39
2022/08/29 08:28:13;;;;;;;;;;;;;;;24.69;58.35;99921.63;7305540;19;129744;-38
2022/08/29 08:30:39;;;;;;;;;;;;;;;24.71;58.64;99929.38;7310532;19;129696;-39
2022/08/29 08:33:04;;;;;;;;;;;;;;;24.71;58.77;99927.53;7309244;19;130631;-38
2022/08/29 08:35:32;;;;;;;;;;;;;;;24.70;58.57;99922.44;7310872;19;129562;-37
2022/08/29 08:37:57;;;;;;;;;;;;;;;24.70;58.74;99925.06;7311583;19;129265;-38
2022/08/29 08:40:26;;;;;;;;;;;;;;;24.70;58.62;99930.31;7310647;19;130237;-37
2022/08/29 08:42:57;;;;;;;;;;;;;;;24.71;59.08;99932.81;7310060;19;130765;-36
2022/08/29 08:45:25;;;;;;;;;;;;;;;24.72;58.88;99925.75;7309559;19;130799;-39
2022/08/29 08:47:50;;;;;;;;;;;;;;;24.71;58.56;99926.75;7307171;19;129300;-38
2022/08/29 08:50:22;;;;;;;;;;;;;;;24.71;58.25;99930.16;7304509;19;130689;-37
2022/08/29 08:53:20;;;;;;;;;;;;;;;24.72;58.29;99936.28;7303590;19;130367;-40
2022/08/29 08:55:47;;;;;;;;;;;;;;;24.72;58.33;99923.97;7305482;19;130751;-40
2022/08/29 08:58:19;;;;;;;;;;;;;;;24.64;59.12;99907.25;7304247;19;129675;-36
2022/08/29 09:00:46;;;;;;;;;;;;;;;24.72;57.95;99916.06;7309068;19;129719;-39
2022/08/29 09:03:11;;;;;;;;;;;;;;;24.71;58.25;99929.38;7307806;19;129828;-38
2022/08/29 09:05:55;;;;;;;;;;;;;;;24.70;58.53;99927.69;7310829;19;129240;-40
2022/08/29 09:08:23;;;;;;;;;;;;;;;24.67;57.45;99939.31;7314114;19;129071;-39
2022/08/29 09:10:51;;;;;;;;;;;;;;;24.68;57.69;99932.28;7316005;19;129167;-39
2022/08/29 09:13:17;;;;;;;;;;;;;;;24.66;57.35;99934.22;7314764;19;130354;-39
2022/08/29 09:15:46;;;;;;;;;;;;;;;24.68;57.79;99934.91;7315444;19;129470;-37
2022/08/29 09:18:31;;;;;;;;;;;;;;;24.64;57.73;99928.28;7315268;19;130380;-39
2022/08/29 09:20:58;;;;;;;;;;;;;;;24.63;57.29;99937.13;7314952;19;129267;-38
2022/08/29 09:23:38;;;;;;;;;;;;;;;24.62;56.87;99936.31;7313922;19;131097;-41
2022/08/29 09:26:03;;;;;;;;;;;;;;;24.54;57.80;99927.53;7313550;19;129329;-38
2022/08/29 09:28:29;;;;;;;;;;;;;;;24.61;56.76;99939.09;7313531;19;128989;-39
2022/08/29 09:31:12;;;;;;;;;;;;;;;24.61;56.84;99928.59;7315456;19;129335;-39
2022/08/29 09:33:42;;;;;;;;;;;;;;;24.58;57.06;99931.53;7312121;19;130546;-40
2022/08/29 09:36:10;;;;;;;;;;;;;;;24.60;57.72;99942.69;7311254;19;129515;-41
2022/08/29 09:38:36;;;;;;;;;;;;;;;24.48;56.92;99914.00;7316171;19;129708;-40
2022/08/29 09:41:03;;;;;;;;;;;;;;;24.58;56.63;99926.28;7308952;19;129290;-38
2022/08/29 09:43:37;;;;;;;;;;;;;;;24.57;57.07;99930.69;7313434;19;130600;-41
2022/08/29 09:46:17;;;;;;;;;;;;;;;24.58;56.78;99927.06;7311124;19;129406;-41
2022/08/29 09:48:44;;;;;;;;;;;;;;;24.58;57.01;99918.38;7312879;19;129003;-40
2022/08/29 09:51:27;;;;;;;;;;;;;;;24.54;56.73;99933.63;7314904;19;130382;-38
2022/08/29 09:54:02;;;;;;;;;;;;;;;24.53;56.64;99923.25;7313404;19;129519;-41
2022/08/29 09:56:28;;;;;;;;;;;;;;;24.49;56.36;99920.91;7308422;19;129434;-40
2022/08/29 09:58:58;;;;;;;;;;;;;;;24.50;57.10;99924.38;7313739;19;129404;-40
2022/08/29 10:01:24;;;;;;;;;;;;;;;24.45;56.35;99903.81;7314467;19;129595;-41
2022/08/29 10:03:52;;;;;;;;;;;;;;;24.54;56.88;99915.22;7315442;19;130325;-40
2022/08/29 10:06:26;;;;;;;;;;;;;;;24.55;56.72;99910.78;7312499;19;129081;-38
2022/08/29 10:08:56;;;;;;;;;;;;;;;24.54;56.87;99909.97;7312453;19;129430;-39
2022/08/29 10:11:25;;;;;;;;;;;;;;;24.52;56.33;99913.72;7314044;19;129474;-39
2022/08/29 10:13:54;;;;;;;;;;;;;;;24.53;57.03;99918.00;7312948;19;129608;-40
2022/08/29 10:16:38;;;;;;;;;;;;;;;24.51;56.28;99918.13;7312250;19;129868;-40
2022/08/29 10:19:09;;;;;;;;;;;;;;;24.54;56.93;99922.28;7310307;19;130919;-37
2022/08/29 10:21:48;;;;;;;;;;;;;;;24.52;56.31;99921.59;7315380;19;130274;-40
2022/08/29 10:24:23;;;;;;;;;;;;;;;24.38;56.37;99901.91;7313014;19;131003;-40
2022/08/29 10:27:07;;;;;;;;;;;;;;;24.51;56.33;99912.88;7309779;19;130246;-38
2022/08/29 10:29:38;;;;;;;;;;;;;;;24.44;56.10;99917.91;7310384;19;130990;-38
2022/08/29 10:32:06;;;;;;;;;;;;;;;24.46;56.36;99913.31;7312448;19;129133;-40
2022/08/29 10:34:51;;;;;;;;;;;;;;;24.46;56.52;99908.06;7312822;19;129204;-41
2022/08/29 10:37:42;;;;;;;;;;;;;;;24.46;56.39;99915.97;7313784;19;129290;-40
2022/08/29 10:40:12;;;;;;;;;;;;;;;24.41;56.43;99899.81;7311335;19;128844;-39
2022/08/29 10:42:39;;;;;;;;;;;;;;;24.49;55.97;99922.72;7312035;19;129689;-37
2022/08/29 10:45:17;;;;;;;;;;;;;;;24.48;55.75;99917.63;7312721;19;131678;-38
2022/08/29 10:47:48;;;;;;;;;;;;;;;24.42;56.40;99925.13;7312796;19;130349;-41
2022/08/29 10:50:14;;;;;;;;;;;;;;;24.48;56.79;99917.63;7314344;19;129216;-40
2022/08/29 10:52:42;;;;;;;;;;;;;;;24.36;56.60;99904.69;7312626;19;129308;-39
2022/08/29 10:55:13;;;;;;;;;;;;;;;24.45;56.14;99919.56;7312148;19;130440;-40
2022/08/29 10:57:57;;;;;;;;;;;;;;;24.48;56.05;99918.44;7313778;19;130042;-40
2022/08/29 11:00:26;;;;;;;;;;;;;;;24.46;56.41;99915.16;7310010;19;129545;-41
2022/08/29 11:03:11;;;;;;;;;;;;;;;24.45;56.20;99919.56;7313361;19;129486;-41
2022/08/29 11:05:42;;;;;;;;;;;;;;;24.46;55.46;99910.69;7311899;19;130323;-40
2022/08/29 11:08:10;;;;;;;;;;;;;;;24.36;56.64;99909.94;7312392;19;129071;-42
2022/08/29 11:10:39;;;;;;;;;;;;;;;24.46;56.30;99913.31;7314913;19;129537;-41
2022/08/29 11:13:17;;;;;;;;;;;;;;;24.46;56.92;99908.06;7313527;19;129285;-40
2022/08/29 11:15:46;;;;;;;;;;;;;;;24.45;55.78;99903.81;7306545;19;131531;-41
2022/08/29 11:18:24;;;;;;;;;;;;;;;24.44;55.60;99911.84;7314128;19;129404;-40
2022/08/29 11:20:52;;;;;;;;;;;;;;;24.48;56.10;99909.75;7313010;19;129501;-40
2022/08/29 11:23:17;;;;;;;;;;;;;;;24.42;56.44;99912.00;7284172;19;129502;-37
2022/08/29 11:25:43;;;;;;;;;;;;;;;24.47;55.86;99914.16;7269245;19;130593;-38
2022/08/29 11:28:08;;;;;;;;;;;;;;;24.43;56.12;99905.75;7293699;19;129608;-41
2022/08/29 11:30:39;;;;;;;;;;;;;;;24.40;55.92;99895.53;7311939;19;130148;-39
2022/08/29 11:33:37;;;;;;;;;;;;;;;24.48;55.94;99904.50;7313180;19;130378;-39
2022/08/29 11:36:05;;;;;;;;;;;;;;;24.39;56.29;99893.88;7305212;19;129382;-36
2022/08/29 11:38:37;;;;;;;;;;;;;;;24.46;56.19;99910.69;7313866;19;129153;-40
2022/08/29 11:41:20;;;;;;;;;;;;;;;24.46;56.03;99900.19;7308572;19;129586;-39
2022/08/29 11:43:48;;;;;;;;;;;;;;;24.49;55.69;99904.34;7308881;19;131782;-41
2022/08/29 11:46:14;;;;;;;;;;;;;;;24.46;55.66;99897.56;7311587;19;129783;-41
2022/08/29 11:48:46;;;;;;;;;;;;;;;24.44;56.45;99896.88;7308515;19;129363;-41
2022/08/29 11:51:33;;;;;;;;;;;;;;;24.45;55.78;99898.56;7310849;19;129283;-40
2022/08/29 11:54:17;;;;;;;;;;;;;;;24.43;55.70;99889.97;7312151;19;130196;-41
2022/08/29 11:56:43;;;;;;;;;;;;;;;24.43;56.31;99889.97;7310628;19;129461;-40
2022/08/29 11:59:08;;;;;;;;;;;;;;;24.44;56.61;99885.56;7309750;19;130212;-39
2022/08/29 12:01:33;;;;;;;;;;;;;;;24.43;56.27;99883.88;7310094;19;128807;-41
2022/08/29 12:03:59;;;;;;;;;;;;;;;24.37;56.15;99885.34;7312896;19;131690;-41
2022/08/29 12:06:27;;;;;;;;;;;;;;;24.46;55.81;99897.56;7305787;19;130570;-37
2022/08/29 12:09:11;;;;;;;;;;;;;;;24.45;55.87;99898.56;7311236;19;129046;-41
2022/08/29 12:11:55;;;;;;;;;;;;;;;24.43;55.75;99892.59;7308475;19;129836;-39
2022/08/29 12:14:29;;;;;;;;;;;;;;;24.44;55.49;99888.19;7310873;19;129240;-40
2022/08/29 12:16:55;;;;;;;;;;;;;;;24.44;55.92;99894.25;7307297;19;130879;-36
2022/08/29 12:19:39;;;;;;;;;;;;;;;24.44;56.59;99885.56;7311763;19;130377;-41
2022/08/29 12:22:04;;;;;;;;;;;;;;;24.37;56.05;99872.19;7312238;19;129628;-39
2022/08/29 12:24:35;;;;;;;;;;;;;;;24.44;56.36;99881.09;7313163;19;130251;-41
2022/08/29 12:27:02;;;;;;;;;;;;;;;24.45;56.22;99888.03;7302550;19;129550;-37
2022/08/29 12:29:33;;;;;;;;;;;;;;;24.44;56.48;99883.72;7304379;19;129312;-39
2022/08/29 12:32:01;;;;;;;;;;;;;;;24.46;56.67;99887.03;7311322;19;129521;-41
2022/08/29 12:34:47;;;;;;;;;;;;;;;24.48;56.04;99883.47;7309903;19;130231;-40
2022/08/29 12:37:15;;;;;;;;;;;;;;;24.46;56.27;99879.16;7305920;19;129307;-40
2022/08/29 12:39:46;;;;;;;;;;;;;;;24.46;56.52;99887.03;7315756;19;128815;-38